sensor_id;sensor_type;location;lat;lon;timestamp;P1;durP1;ratioP1;P2;durP2;ratioP2
64966;SDS011;51710;38.732;-121.358;2022-12-24T00:00:26;43.28;;;19.98;;
64966;SDS011;51710;38.732;-121.358;2022-12-24T00:02:54;47.28;;;19.20;;
64966;SDS011;51710;38.732;-121.358;2022-12-24T00:05:20;38.63;;;18.77;;
64966;SDS011;51710;38.732;-121.358;2022-12-24T00:07:46;40.47;;;18.40;;
64966;SDS011;51710;38.732;-121.358;2022-12-24T00:10:13;42.30;;;18.45;;
64966;SDS011;51710;38.732;-121.358;2022-12-24T00:12:39;39.10;;;19.20;;
64966;SDS011;51710;38.732;-121.358;2022-12-24T00:15:06;37.72;;;18.52;;
64966;SDS011;51710;38.732;-121.358;2022-12-24T00:17:32;39.78;;;17.83;;
64966;SDS011;51710;38.732;-121.358;2022-12-24T00:19:59;35.65;;;17.38;;
64966;SDS011;51710;38.732;-121.358;2022-12-24T00:22:25;41.30;;;18.30;;
64966;SDS011;51710;38.732;-121.358;2022-12-24T00:24:51;37.10;;;16.95;;
64966;SDS011;51710;38.732;-121.358;2022-12-24T00:27:18;42.13;;;19.77;;
64966;SDS011;51710;38.732;-121.358;2022-12-24T00:29:44;42.05;;;17.75;;
64966;SDS011;51710;38.732;-121.358;2022-12-24T00:32:10;40.22;;;18.25;;
64966;SDS011;51710;38.732;-121.358;2022-12-24T00:34:36;38.40;;;18.08;;
64966;SDS011;51710;38.732;-121.358;2022-12-24T00:37:03;42.13;;;19.25;;
64966;SDS011;51710;38.732;-121.358;2022-12-24T00:39:30;37.60;;;18.45;;
64966;SDS011;51710;38.732;-121.358;2022-12-24T00:41:57;35.28;;;16.77;;
64966;SDS011;51710;38.732;-121.358;2022-12-24T00:44:23;35.78;;;16.77;;
64966;SDS011;51710;38.732;-121.358;2022-12-24T00:46:50;37.00;;;18.00;;
64966;SDS011;51710;38.732;-121.358;2022-12-24T00:49:16;35.53;;;17.10;;
64966;SDS011;51710;38.732;-121.358;2022-12-24T00:51:42;38.30;;;17.23;;
64966;SDS011;51710;38.732;-121.358;2022-12-24T00:54:09;38.80;;;17.33;;
64966;SDS011;51710;38.732;-121.358;2022-12-24T00:56:35;34.42;;;17.60;;
64966;SDS011;51710;38.732;-121.358;2022-12-24T00:59:02;36.25;;;17.08;;
64966;SDS011;51710;38.732;-121.358;2022-12-24T01:01:28;54.78;;;17.80;;
64966;SDS011;51710;38.732;-121.358;2022-12-24T01:03:54;36.63;;;17.10;;
64966;SDS011;51710;38.732;-121.358;2022-12-24T01:06:40;36.50;;;17.33;;
64966;SDS011;51710;38.732;-121.358;2022-12-24T01:09:07;36.78;;;17.20;;
64966;SDS011;51710;38.732;-121.358;2022-12-24T01:11:33;37.00;;;17.52;;
64966;SDS011;51710;38.732;-121.358;2022-12-24T01:13:59;36.00;;;16.60;;
64966;SDS011;51710;38.732;-121.358;2022-12-24T01:16:26;40.15;;;18.83;;
64966;SDS011;51710;38.732;-121.358;2022-12-24T01:18:52;40.20;;;19.02;;
64966;SDS011;51710;38.732;-121.358;2022-12-24T01:21:18;38.80;;;19.45;;
64966;SDS011;51710;38.732;-121.358;2022-12-24T01:23:44;40.20;;;18.00;;
64966;SDS011;51710;38.732;-121.358;2022-12-24T01:26:11;39.13;;;18.50;;
64966;SDS011;51710;38.732;-121.358;2022-12-24T01:28:37;37.13;;;18.20;;
64966;SDS011;51710;38.732;-121.358;2022-12-24T01:31:11;36.33;;;18.27;;
64966;SDS011;51710;38.732;-121.358;2022-12-24T01:33:39;35.25;;;17.40;;
64966;SDS011;51710;38.732;-121.358;2022-12-24T01:36:05;35.72;;;17.90;;
64966;SDS011;51710;38.732;-121.358;2022-12-24T01:38:32;35.58;;;17.25;;
64966;SDS011;51710;38.732;-121.358;2022-12-24T01:40:58;36.55;;;17.77;;
64966;SDS011;51710;38.732;-121.358;2022-12-24T01:43:43;38.05;;;18.27;;
64966;SDS011;51710;38.732;-121.358;2022-12-24T01:46:19;39.80;;;19.70;;
64966;SDS011;51710;38.732;-121.358;2022-12-24T01:48:55;37.20;;;19.27;;
64966;SDS011;51710;38.732;-121.358;2022-12-24T01:54:01;43.88;;;22.85;;
64966;SDS011;51710;38.732;-121.358;2022-12-24T01:59:06;43.95;;;22.77;;
64966;SDS011;51710;38.732;-121.358;2022-12-24T02:01:35;45.42;;;23.55;;
64966;SDS011;51710;38.732;-121.358;2022-12-24T02:04:02;39.92;;;21.42;;
64966;SDS011;51710;38.732;-121.358;2022-12-24T02:06:38;35.75;;;19.20;;
64966;SDS011;51710;38.732;-121.358;2022-12-24T02:09:04;40.33;;;20.33;;
64966;SDS011;51710;38.732;-121.358;2022-12-24T02:11:31;43.60;;;22.15;;
64966;SDS011;51710;38.732;-121.358;2022-12-24T02:14:05;43.95;;;22.45;;
64966;SDS011;51710;38.732;-121.358;2022-12-24T02:22:13;40.05;;;19.67;;
64966;SDS011;51710;38.732;-121.358;2022-12-24T02:27:55;40.53;;;19.42;;
64966;SDS011;51710;38.732;-121.358;2022-12-24T02:30:44;41.03;;;19.05;;
64966;SDS011;51710;38.732;-121.358;2022-12-24T02:35:52;42.50;;;19.70;;
64966;SDS011;51710;38.732;-121.358;2022-12-24T02:40:51;41.45;;;19.88;;
64966;SDS011;51710;38.732;-121.358;2022-12-24T02:43:23;44.60;;;20.95;;
64966;SDS011;51710;38.732;-121.358;2022-12-24T02:46:00;48.72;;;23.92;;
64966;SDS011;51710;38.732;-121.358;2022-12-24T02:48:33;47.47;;;23.85;;
64966;SDS011;51710;38.732;-121.358;2022-12-24T02:51:06;41.78;;;20.33;;
64966;SDS011;51710;38.732;-121.358;2022-12-24T02:53:34;42.88;;;21.10;;
64966;SDS011;51710;38.732;-121.358;2022-12-24T03:07:18;40.00;;;18.17;;
64966;SDS011;51710;38.732;-121.358;2022-12-24T03:12:35;44.22;;;18.35;;
64966;SDS011;51710;38.732;-121.358;2022-12-24T03:15:09;41.85;;;19.05;;
64966;SDS011;51710;38.732;-121.358;2022-12-24T03:17:39;38.60;;;17.42;;
64966;SDS011;51710;38.732;-121.358;2022-12-24T03:20:09;46.35;;;19.88;;
64966;SDS011;51710;38.732;-121.358;2022-12-24T03:22:37;46.88;;;22.05;;
64966;SDS011;51710;38.732;-121.358;2022-12-24T03:25:04;50.13;;;22.30;;
64966;SDS011;51710;38.732;-121.358;2022-12-24T03:27:30;42.15;;;18.85;;
64966;SDS011;51710;38.732;-121.358;2022-12-24T03:29:58;40.15;;;17.90;;
64966;SDS011;51710;38.732;-121.358;2022-12-24T03:32:29;36.15;;;18.90;;
64966;SDS011;51710;38.732;-121.358;2022-12-24T03:34:56;37.97;;;17.75;;
64966;SDS011;51710;38.732;-121.358;2022-12-24T03:37:23;40.47;;;19.15;;
64966;SDS011;51710;38.732;-121.358;2022-12-24T03:39:50;49.97;;;19.30;;
64966;SDS011;51710;38.732;-121.358;2022-12-24T03:42:17;42.17;;;18.83;;
64966;SDS011;51710;38.732;-121.358;2022-12-24T03:44:43;47.17;;;18.45;;
64966;SDS011;51710;38.732;-121.358;2022-12-24T03:47:09;47.55;;;19.95;;
64966;SDS011;51710;38.732;-121.358;2022-12-24T03:49:36;45.90;;;21.00;;
64966;SDS011;51710;38.732;-121.358;2022-12-24T03:52:04;46.53;;;22.42;;
64966;SDS011;51710;38.732;-121.358;2022-12-24T03:54:34;65.85;;;28.80;;
64966;SDS011;51710;38.732;-121.358;2022-12-24T03:57:00;78.63;;;33.53;;
64966;SDS011;51710;38.732;-121.358;2022-12-24T03:59:27;78.82;;;34.20;;
64966;SDS011;51710;38.732;-121.358;2022-12-24T04:01:53;100.95;;;38.90;;
64966;SDS011;51710;38.732;-121.358;2022-12-24T04:04:19;47.88;;;22.10;;
64966;SDS011;51710;38.732;-121.358;2022-12-24T04:06:45;41.88;;;18.60;;
64966;SDS011;51710;38.732;-121.358;2022-12-24T04:09:12;35.08;;;18.17;;
64966;SDS011;51710;38.732;-121.358;2022-12-24T04:11:38;43.15;;;19.02;;
64966;SDS011;51710;38.732;-121.358;2022-12-24T04:14:04;39.13;;;17.80;;
64966;SDS011;51710;38.732;-121.358;2022-12-24T04:16:30;38.78;;;17.17;;
64966;SDS011;51710;38.732;-121.358;2022-12-24T04:18:57;40.00;;;18.50;;
64966;SDS011;51710;38.732;-121.358;2022-12-24T04:21:23;37.30;;;18.23;;
64966;SDS011;51710;38.732;-121.358;2022-12-24T04:23:49;36.13;;;17.50;;
64966;SDS011;51710;38.732;-121.358;2022-12-24T04:26:16;44.40;;;17.33;;
64966;SDS011;51710;38.732;-121.358;2022-12-24T04:28:42;36.70;;;16.25;;
64966;SDS011;51710;38.732;-121.358;2022-12-24T04:31:12;38.00;;;16.20;;
64966;SDS011;51710;38.732;-121.358;2022-12-24T04:33:40;39.15;;;17.77;;
64966;SDS011;51710;38.732;-121.358;2022-12-24T04:36:07;34.03;;;15.40;;
64966;SDS011;51710;38.732;-121.358;2022-12-24T04:38:36;31.25;;;15.55;;
64966;SDS011;51710;38.732;-121.358;2022-12-24T04:41:06;36.60;;;16.88;;
64966;SDS011;51710;38.732;-121.358;2022-12-24T04:43:36;33.40;;;15.90;;
64966;SDS011;51710;38.732;-121.358;2022-12-24T04:46:03;37.40;;;15.80;;
64966;SDS011;51710;38.732;-121.358;2022-12-24T04:48:34;34.35;;;16.38;;
64966;SDS011;51710;38.732;-121.358;2022-12-24T04:51:02;39.13;;;17.52;;
64966;SDS011;51710;38.732;-121.358;2022-12-24T04:53:30;43.80;;;18.77;;
64966;SDS011;51710;38.732;-121.358;2022-12-24T04:55:57;47.78;;;20.02;;
64966;SDS011;51710;38.732;-121.358;2022-12-24T04:58:23;45.20;;;20.30;;
64966;SDS011;51710;38.732;-121.358;2022-12-24T05:00:49;48.38;;;20.98;;
64966;SDS011;51710;38.732;-121.358;2022-12-24T05:03:16;51.83;;;25.52;;
64966;SDS011;51710;38.732;-121.358;2022-12-24T05:05:42;91.88;;;32.90;;
64966;SDS011;51710;38.732;-121.358;2022-12-24T05:08:09;66.53;;;28.38;;
64966;SDS011;51710;38.732;-121.358;2022-12-24T05:10:35;53.53;;;23.90;;
64966;SDS011;51710;38.732;-121.358;2022-12-24T05:13:01;65.97;;;29.95;;
64966;SDS011;51710;38.732;-121.358;2022-12-24T06:24:33;53.53;;;26.17;;
64966;SDS011;51710;38.732;-121.358;2022-12-24T06:27:15;47.92;;;23.63;;
64966;SDS011;51710;38.732;-121.358;2022-12-24T06:29:41;48.70;;;22.77;;
64966;SDS011;51710;38.732;-121.358;2022-12-24T06:32:07;48.25;;;23.88;;
64966;SDS011;51710;38.732;-121.358;2022-12-24T06:34:33;48.42;;;23.08;;
64966;SDS011;51710;38.732;-121.358;2022-12-24T06:37:00;46.90;;;24.65;;
64966;SDS011;51710;38.732;-121.358;2022-12-24T06:39:26;54.88;;;25.13;;
64966;SDS011;51710;38.732;-121.358;2022-12-24T06:41:53;61.45;;;28.65;;
64966;SDS011;51710;38.732;-121.358;2022-12-24T06:44:19;49.38;;;25.23;;
64966;SDS011;51710;38.732;-121.358;2022-12-24T06:46:46;49.28;;;23.67;;
64966;SDS011;51710;38.732;-121.358;2022-12-24T06:49:12;58.38;;;27.77;;
64966;SDS011;51710;38.732;-121.358;2022-12-24T06:51:38;65.97;;;30.73;;
64966;SDS011;51710;38.732;-121.358;2022-12-24T06:54:05;71.05;;;29.25;;
64966;SDS011;51710;38.732;-121.358;2022-12-24T06:56:32;50.58;;;24.95;;
64966;SDS011;51710;38.732;-121.358;2022-12-24T06:58:58;55.80;;;27.10;;
64966;SDS011;51710;38.732;-121.358;2022-12-24T07:01:25;52.72;;;26.23;;
64966;SDS011;51710;38.732;-121.358;2022-12-24T07:03:51;51.08;;;23.85;;
64966;SDS011;51710;38.732;-121.358;2022-12-24T07:06:24;50.03;;;24.83;;
64966;SDS011;51710;38.732;-121.358;2022-12-24T07:08:53;54.10;;;24.92;;
64966;SDS011;51710;38.732;-121.358;2022-12-24T07:11:20;58.38;;;28.60;;
64966;SDS011;51710;38.732;-121.358;2022-12-24T07:13:47;56.30;;;26.02;;
64966;SDS011;51710;38.732;-121.358;2022-12-24T07:16:14;55.58;;;28.33;;
64966;SDS011;51710;38.732;-121.358;2022-12-24T07:18:40;55.42;;;26.58;;
64966;SDS011;51710;38.732;-121.358;2022-12-24T07:21:07;59.85;;;26.17;;
64966;SDS011;51710;38.732;-121.358;2022-12-24T07:23:33;56.35;;;25.92;;
64966;SDS011;51710;38.732;-121.358;2022-12-24T07:26:00;48.78;;;24.52;;
64966;SDS011;51710;38.732;-121.358;2022-12-24T07:28:28;52.88;;;26.95;;
64966;SDS011;51710;38.732;-121.358;2022-12-24T07:30:55;57.63;;;25.75;;
64966;SDS011;51710;38.732;-121.358;2022-12-24T07:33:22;52.97;;;25.40;;
64966;SDS011;51710;38.732;-121.358;2022-12-24T07:35:56;48.92;;;24.33;;
64966;SDS011;51710;38.732;-121.358;2022-12-24T07:38:30;54.22;;;25.60;;
64966;SDS011;51710;38.732;-121.358;2022-12-24T07:40:56;47.40;;;24.95;;
64966;SDS011;51710;38.732;-121.358;2022-12-24T07:43:23;48.22;;;25.10;;
64966;SDS011;51710;38.732;-121.358;2022-12-24T07:45:53;46.72;;;23.35;;
64966;SDS011;51710;38.732;-121.358;2022-12-24T07:48:21;51.40;;;26.23;;
64966;SDS011;51710;38.732;-121.358;2022-12-24T07:50:50;45.17;;;23.77;;
64966;SDS011;51710;38.732;-121.358;2022-12-24T07:53:17;48.72;;;25.27;;
64966;SDS011;51710;38.732;-121.358;2022-12-24T07:55:43;49.30;;;26.92;;
64966;SDS011;51710;38.732;-121.358;2022-12-24T07:58:10;46.97;;;24.35;;
64966;SDS011;51710;38.732;-121.358;2022-12-24T08:00:36;47.80;;;24.02;;
64966;SDS011;51710;38.732;-121.358;2022-12-24T08:03:03;49.35;;;25.42;;
64966;SDS011;51710;38.732;-121.358;2022-12-24T08:05:32;51.33;;;25.15;;
64966;SDS011;51710;38.732;-121.358;2022-12-24T08:08:00;49.08;;;24.33;;
64966;SDS011;51710;38.732;-121.358;2022-12-24T08:10:26;49.97;;;24.33;;
64966;SDS011;51710;38.732;-121.358;2022-12-24T08:12:53;47.25;;;24.73;;
64966;SDS011;51710;38.732;-121.358;2022-12-24T08:15:19;48.10;;;24.27;;
64966;SDS011;51710;38.732;-121.358;2022-12-24T08:17:46;47.65;;;23.20;;
64966;SDS011;51710;38.732;-121.358;2022-12-24T08:20:13;45.45;;;22.55;;
64966;SDS011;51710;38.732;-121.358;2022-12-24T08:22:41;45.80;;;23.15;;
64966;SDS011;51710;38.732;-121.358;2022-12-24T08:25:08;49.13;;;23.73;;
64966;SDS011;51710;38.732;-121.358;2022-12-24T08:27:34;46.88;;;25.00;;
64966;SDS011;51710;38.732;-121.358;2022-12-24T08:30:02;47.28;;;26.73;;
64966;SDS011;51710;38.732;-121.358;2022-12-24T08:32:29;57.20;;;28.58;;
64966;SDS011;51710;38.732;-121.358;2022-12-24T08:34:55;55.83;;;27.70;;
64966;SDS011;51710;38.732;-121.358;2022-12-24T08:37:21;56.70;;;28.70;;
64966;SDS011;51710;38.732;-121.358;2022-12-24T08:39:48;49.72;;;25.00;;
64966;SDS011;51710;38.732;-121.358;2022-12-24T08:42:14;43.72;;;23.20;;
64966;SDS011;51710;38.732;-121.358;2022-12-24T08:44:40;42.58;;;23.40;;
64966;SDS011;51710;38.732;-121.358;2022-12-24T08:47:06;51.88;;;25.70;;
64966;SDS011;51710;38.732;-121.358;2022-12-24T08:49:33;51.03;;;26.05;;
64966;SDS011;51710;38.732;-121.358;2022-12-24T08:51:59;42.17;;;21.52;;
64966;SDS011;51710;38.732;-121.358;2022-12-24T08:54:25;42.22;;;20.58;;
64966;SDS011;51710;38.732;-121.358;2022-12-24T08:56:52;37.55;;;20.42;;
64966;SDS011;51710;38.732;-121.358;2022-12-24T08:59:18;48.33;;;24.25;;
64966;SDS011;51710;38.732;-121.358;2022-12-24T09:01:44;45.22;;;22.98;;
64966;SDS011;51710;38.732;-121.358;2022-12-24T09:04:10;41.00;;;22.27;;
64966;SDS011;51710;38.732;-121.358;2022-12-24T09:06:37;45.28;;;24.02;;
64966;SDS011;51710;38.732;-121.358;2022-12-24T09:09:03;46.33;;;23.90;;
64966;SDS011;51710;38.732;-121.358;2022-12-24T09:11:30;51.53;;;23.50;;
64966;SDS011;51710;38.732;-121.358;2022-12-24T09:13:59;49.20;;;23.77;;
64966;SDS011;51710;38.732;-121.358;2022-12-24T09:16:26;46.47;;;23.80;;
64966;SDS011;51710;38.732;-121.358;2022-12-24T09:18:52;49.72;;;23.92;;
64966;SDS011;51710;38.732;-121.358;2022-12-24T09:21:19;48.10;;;24.08;;
64966;SDS011;51710;38.732;-121.358;2022-12-24T09:23:46;47.90;;;24.98;;
64966;SDS011;51710;38.732;-121.358;2022-12-24T09:26:16;45.55;;;25.25;;
64966;SDS011;51710;38.732;-121.358;2022-12-24T09:28:50;44.30;;;25.27;;
64966;SDS011;51710;38.732;-121.358;2022-12-24T09:31:18;44.83;;;25.42;;
64966;SDS011;51710;38.732;-121.358;2022-12-24T09:33:45;45.97;;;24.63;;
64966;SDS011;51710;38.732;-121.358;2022-12-24T09:36:13;43.88;;;24.80;;
64966;SDS011;51710;38.732;-121.358;2022-12-24T09:38:39;45.88;;;24.83;;
64966;SDS011;51710;38.732;-121.358;2022-12-24T09:41:13;48.25;;;27.55;;
64966;SDS011;51710;38.732;-121.358;2022-12-24T09:43:46;46.25;;;23.30;;
64966;SDS011;51710;38.732;-121.358;2022-12-24T09:46:25;44.90;;;24.55;;
64966;SDS011;51710;38.732;-121.358;2022-12-24T09:49:00;46.45;;;23.10;;
64966;SDS011;51710;38.732;-121.358;2022-12-24T09:54:23;53.47;;;25.73;;
64966;SDS011;51710;38.732;-121.358;2022-12-24T09:56:54;53.08;;;26.55;;
64966;SDS011;51710;38.732;-121.358;2022-12-24T09:59:25;58.35;;;29.45;;
64966;SDS011;51710;38.732;-121.358;2022-12-24T10:02:08;58.00;;;28.25;;
64966;SDS011;51710;38.732;-121.358;2022-12-24T10:04:37;59.53;;;28.60;;
64966;SDS011;51710;38.732;-121.358;2022-12-24T10:07:11;52.70;;;25.38;;
64966;SDS011;51710;38.732;-121.358;2022-12-24T10:10:20;57.42;;;26.17;;
64966;SDS011;51710;38.732;-121.358;2022-12-24T10:15:38;55.75;;;27.60;;
64966;SDS011;51710;38.732;-121.358;2022-12-24T10:21:46;49.67;;;25.17;;
64966;SDS011;51710;38.732;-121.358;2022-12-24T10:24:15;51.05;;;23.95;;
64966;SDS011;51710;38.732;-121.358;2022-12-24T10:26:53;51.08;;;24.67;;
64966;SDS011;51710;38.732;-121.358;2022-12-24T10:29:35;50.13;;;24.38;;
64966;SDS011;51710;38.732;-121.358;2022-12-24T10:35:20;44.85;;;24.30;;
64966;SDS011;51710;38.732;-121.358;2022-12-24T10:37:28;45.13;;;23.65;;
64966;SDS011;51710;38.732;-121.358;2022-12-24T10:39:56;52.10;;;24.85;;
64966;SDS011;51710;38.732;-121.358;2022-12-24T10:42:25;55.38;;;25.63;;
64966;SDS011;51710;38.732;-121.358;2022-12-24T10:45:04;54.45;;;25.30;;
64966;SDS011;51710;38.732;-121.358;2022-12-24T10:47:32;51.15;;;25.92;;
64966;SDS011;51710;38.732;-121.358;2022-12-24T10:50:03;46.67;;;23.00;;
64966;SDS011;51710;38.732;-121.358;2022-12-24T10:52:34;50.00;;;23.88;;
64966;SDS011;51710;38.732;-121.358;2022-12-24T10:55:09;52.17;;;23.10;;
64966;SDS011;51710;38.732;-121.358;2022-12-24T10:58:01;42.17;;;21.92;;
64966;SDS011;51710;38.732;-121.358;2022-12-24T11:00:31;44.25;;;20.25;;
64966;SDS011;51710;38.732;-121.358;2022-12-24T11:03:15;42.92;;;20.15;;
64966;SDS011;51710;38.732;-121.358;2022-12-24T11:08:27;42.05;;;19.83;;
64966;SDS011;51710;38.732;-121.358;2022-12-24T11:10:55;43.30;;;20.80;;
64966;SDS011;51710;38.732;-121.358;2022-12-24T11:13:38;41.60;;;20.67;;
64966;SDS011;51710;38.732;-121.358;2022-12-24T11:18:49;41.90;;;19.90;;
64966;SDS011;51710;38.732;-121.358;2022-12-24T11:21:19;34.85;;;19.35;;
64966;SDS011;51710;38.732;-121.358;2022-12-24T11:23:55;40.47;;;19.13;;
64966;SDS011;51710;38.732;-121.358;2022-12-24T11:26:34;35.55;;;19.48;;
64966;SDS011;51710;38.732;-121.358;2022-12-24T11:31:42;38.25;;;19.70;;
64966;SDS011;51710;38.732;-121.358;2022-12-24T11:34:28;39.00;;;20.25;;
64966;SDS011;51710;38.732;-121.358;2022-12-24T11:37:06;37.70;;;19.45;;
64966;SDS011;51710;38.732;-121.358;2022-12-24T11:39:40;35.78;;;19.33;;
64966;SDS011;51710;38.732;-121.358;2022-12-24T11:45:23;45.63;;;20.55;;
64966;SDS011;51710;38.732;-121.358;2022-12-24T11:47:56;32.83;;;17.80;;
64966;SDS011;51710;38.732;-121.358;2022-12-24T11:55:44;33.45;;;18.08;;
64966;SDS011;51710;38.732;-121.358;2022-12-24T12:06:46;39.95;;;19.33;;
64966;SDS011;51710;38.732;-121.358;2022-12-24T12:09:21;37.90;;;18.83;;
64966;SDS011;51710;38.732;-121.358;2022-12-24T12:12:05;35.83;;;18.02;;
64966;SDS011;51710;38.732;-121.358;2022-12-24T12:17:56;34.55;;;17.73;;
64966;SDS011;51710;38.732;-121.358;2022-12-24T12:20:40;33.00;;;16.63;;
64966;SDS011;51710;38.732;-121.358;2022-12-24T12:25:54;34.20;;;17.27;;
64966;SDS011;51710;38.732;-121.358;2022-12-24T12:28:31;38.47;;;18.60;;
64966;SDS011;51710;38.732;-121.358;2022-12-24T12:31:25;36.08;;;18.48;;
64966;SDS011;51710;38.732;-121.358;2022-12-24T12:37:06;39.47;;;17.27;;
64966;SDS011;51710;38.732;-121.358;2022-12-24T12:39:43;36.38;;;18.33;;
64966;SDS011;51710;38.732;-121.358;2022-12-24T12:42:22;34.90;;;18.23;;
64966;SDS011;51710;38.732;-121.358;2022-12-24T12:58:24;28.95;;;16.50;;
64966;SDS011;51710;38.732;-121.358;2022-12-24T13:01:00;25.02;;;16.35;;
64966;SDS011;51710;38.732;-121.358;2022-12-24T13:12:42;30.90;;;15.90;;
64966;SDS011;51710;38.732;-121.358;2022-12-24T13:18:04;31.52;;;17.40;;
64966;SDS011;51710;38.732;-121.358;2022-12-24T13:20:51;31.25;;;16.17;;
64966;SDS011;51710;38.732;-121.358;2022-12-24T13:23:22;33.17;;;16.20;;
64966;SDS011;51710;38.732;-121.358;2022-12-24T13:25:51;29.67;;;16.95;;
64966;SDS011;51710;38.732;-121.358;2022-12-24T13:30:45;31.65;;;17.05;;
64966;SDS011;51710;38.732;-121.358;2022-12-24T13:36:08;34.28;;;18.00;;
64966;SDS011;51710;38.732;-121.358;2022-12-24T13:38:43;33.45;;;16.35;;
64966;SDS011;51710;38.732;-121.358;2022-12-24T13:49:24;35.00;;;17.48;;
64966;SDS011;51710;38.732;-121.358;2022-12-24T13:52:54;41.90;;;18.35;;
64966;SDS011;51710;38.732;-121.358;2022-12-24T13:57:43;35.67;;;17.88;;
64966;SDS011;51710;38.732;-121.358;2022-12-24T14:02:50;38.88;;;18.20;;
64966;SDS011;51710;38.732;-121.358;2022-12-24T14:05:30;37.17;;;18.27;;
64966;SDS011;51710;38.732;-121.358;2022-12-24T14:08:04;37.38;;;16.58;;
64966;SDS011;51710;38.732;-121.358;2022-12-24T14:10:45;39.53;;;17.30;;
64966;SDS011;51710;38.732;-121.358;2022-12-24T14:16:12;37.28;;;16.88;;
64966;SDS011;51710;38.732;-121.358;2022-12-24T14:18:47;35.97;;;16.90;;
64966;SDS011;51710;38.732;-121.358;2022-12-24T14:21:27;38.88;;;19.10;;
64966;SDS011;51710;38.732;-121.358;2022-12-24T14:24:05;35.38;;;18.25;;
64966;SDS011;51710;38.732;-121.358;2022-12-24T14:26:49;37.97;;;17.92;;
64966;SDS011;51710;38.732;-121.358;2022-12-24T14:29:31;42.90;;;18.35;;
64966;SDS011;51710;38.732;-121.358;2022-12-24T14:32:11;34.85;;;17.08;;
64966;SDS011;51710;38.732;-121.358;2022-12-24T14:34:40;34.70;;;17.10;;
64966;SDS011;51710;38.732;-121.358;2022-12-24T14:37:07;30.77;;;16.02;;
64966;SDS011;51710;38.732;-121.358;2022-12-24T14:39:38;35.58;;;16.33;;
64966;SDS011;51710;38.732;-121.358;2022-12-24T14:42:15;32.22;;;15.82;;
64966;SDS011;51710;38.732;-121.358;2022-12-24T14:52:52;33.70;;;16.73;;
64966;SDS011;51710;38.732;-121.358;2022-12-24T14:55:30;32.15;;;16.30;;
64966;SDS011;51710;38.732;-121.358;2022-12-24T15:01:23;30.63;;;16.40;;
64966;SDS011;51710;38.732;-121.358;2022-12-24T15:06:40;32.90;;;17.33;;
64966;SDS011;51710;38.732;-121.358;2022-12-24T15:09:30;35.00;;;17.35;;
64966;SDS011;51710;38.732;-121.358;2022-12-24T15:11:59;32.03;;;17.30;;
64966;SDS011;51710;38.732;-121.358;2022-12-24T15:14:29;35.00;;;17.30;;
64966;SDS011;51710;38.732;-121.358;2022-12-24T15:17:03;38.28;;;18.08;;
64966;SDS011;51710;38.732;-121.358;2022-12-24T15:19:36;33.38;;;17.45;;
64966;SDS011;51710;38.732;-121.358;2022-12-24T15:22:07;38.35;;;17.48;;
64966;SDS011;51710;38.732;-121.358;2022-12-24T15:24:45;33.42;;;16.65;;
64966;SDS011;51710;38.732;-121.358;2022-12-24T15:29:49;38.63;;;18.95;;
64966;SDS011;51710;38.732;-121.358;2022-12-24T15:32:18;36.60;;;18.33;;
64966;SDS011;51710;38.732;-121.358;2022-12-24T15:34:46;44.45;;;20.33;;
64966;SDS011;51710;38.732;-121.358;2022-12-24T15:40:09;59.65;;;23.75;;
64966;SDS011;51710;38.732;-121.358;2022-12-24T15:42:48;49.70;;;20.73;;
64966;SDS011;51710;38.732;-121.358;2022-12-24T15:47:53;46.15;;;18.55;;
64966;SDS011;51710;38.732;-121.358;2022-12-24T15:52:56;67.43;;;25.67;;
64966;SDS011;51710;38.732;-121.358;2022-12-24T16:06:18;53.20;;;20.33;;
64966;SDS011;51710;38.732;-121.358;2022-12-24T16:08:48;68.43;;;22.30;;
64966;SDS011;51710;38.732;-121.358;2022-12-24T16:11:18;70.80;;;22.70;;
64966;SDS011;51710;38.732;-121.358;2022-12-24T16:16:17;76.25;;;24.30;;
64966;SDS011;51710;38.732;-121.358;2022-12-24T16:18:56;80.65;;;23.40;;
64966;SDS011;51710;38.732;-121.358;2022-12-24T16:21:32;75.90;;;23.75;;
64966;SDS011;51710;38.732;-121.358;2022-12-24T16:29:05;60.42;;;20.88;;
64966;SDS011;51710;38.732;-121.358;2022-12-24T16:31:36;55.72;;;20.80;;
64966;SDS011;51710;38.732;-121.358;2022-12-24T16:34:09;31.92;;;20.08;;
64966;SDS011;51710;38.732;-121.358;2022-12-24T16:36:41;48.72;;;19.77;;
64966;SDS011;51710;38.732;-121.358;2022-12-24T16:39:30;44.75;;;19.30;;
64966;SDS011;51710;38.732;-121.358;2022-12-24T16:41:59;62.28;;;22.00;;
64966;SDS011;51710;38.732;-121.358;2022-12-24T16:44:46;63.53;;;22.55;;
64966;SDS011;51710;38.732;-121.358;2022-12-24T16:47:26;48.67;;;21.25;;
64966;SDS011;51710;38.732;-121.358;2022-12-24T16:49:55;56.70;;;20.98;;
64966;SDS011;51710;38.732;-121.358;2022-12-24T16:52:23;47.97;;;20.35;;
64966;SDS011;51710;38.732;-121.358;2022-12-24T16:54:53;42.00;;;21.55;;
64966;SDS011;51710;38.732;-121.358;2022-12-24T16:57:20;42.75;;;21.02;;
64966;SDS011;51710;38.732;-121.358;2022-12-24T16:59:48;53.97;;;23.13;;
64966;SDS011;51710;38.732;-121.358;2022-12-24T17:02:15;45.00;;;20.10;;
64966;SDS011;51710;38.732;-121.358;2022-12-24T17:04:44;41.33;;;20.52;;
64966;SDS011;51710;38.732;-121.358;2022-12-24T17:07:11;40.10;;;20.85;;
64966;SDS011;51710;38.732;-121.358;2022-12-24T17:09:39;46.17;;;20.75;;
64966;SDS011;51710;38.732;-121.358;2022-12-24T17:12:05;40.58;;;20.55;;
64966;SDS011;51710;38.732;-121.358;2022-12-24T17:14:32;36.17;;;20.13;;
64966;SDS011;51710;38.732;-121.358;2022-12-24T17:16:59;43.58;;;21.15;;
64966;SDS011;51710;38.732;-121.358;2022-12-24T17:19:25;39.35;;;20.88;;
64966;SDS011;51710;38.732;-121.358;2022-12-24T17:21:51;37.40;;;20.33;;
64966;SDS011;51710;38.732;-121.358;2022-12-24T17:24:17;40.40;;;20.92;;
64966;SDS011;51710;38.732;-121.358;2022-12-24T17:26:44;43.92;;;21.15;;
64966;SDS011;51710;38.732;-121.358;2022-12-24T17:29:10;37.47;;;19.92;;
64966;SDS011;51710;38.732;-121.358;2022-12-24T17:31:36;42.20;;;20.70;;
64966;SDS011;51710;38.732;-121.358;2022-12-24T17:34:04;39.55;;;19.55;;
64966;SDS011;51710;38.732;-121.358;2022-12-24T17:36:30;42.17;;;20.48;;
64966;SDS011;51710;38.732;-121.358;2022-12-24T17:38:57;36.28;;;20.58;;
64966;SDS011;51710;38.732;-121.358;2022-12-24T17:41:23;38.25;;;19.80;;
64966;SDS011;51710;38.732;-121.358;2022-12-24T17:43:49;41.67;;;20.55;;
64966;SDS011;51710;38.732;-121.358;2022-12-24T17:46:17;40.30;;;20.98;;
64966;SDS011;51710;38.732;-121.358;2022-12-24T17:48:49;42.53;;;22.05;;
64966;SDS011;51710;38.732;-121.358;2022-12-24T17:51:17;40.28;;;21.13;;
64966;SDS011;51710;38.732;-121.358;2022-12-24T17:53:45;40.90;;;20.20;;
64966;SDS011;51710;38.732;-121.358;2022-12-24T17:56:12;39.25;;;20.88;;
64966;SDS011;51710;38.732;-121.358;2022-12-24T17:58:40;39.80;;;22.05;;